createdAt,value
2022-08-30T00:00:41.535Z,98332.38
2022-08-30T00:03:09.617Z,98325.38
2022-08-30T00:05:38.224Z,98322.16
2022-08-30T00:08:06.143Z,98319.72
2022-08-30T00:10:32.369Z,98326.16
2022-08-30T00:13:01.441Z,98325.59
2022-08-30T00:15:27.716Z,98332.00
2022-08-30T00:17:55.976Z,98326.63
2022-08-30T00:20:22.413Z,98329.31
2022-08-30T00:22:48.907Z,98329.31
2022-08-30T00:25:15.298Z,98330.38
2022-08-30T00:27:41.875Z,98329.81
2022-08-30T00:30:12.234Z,98330.34
2022-08-30T00:32:41.105Z,98326.28
2022-08-30T00:35:07.322Z,98329.22
2022-08-30T00:37:33.856Z,98325.97
2022-08-30T00:40:00.224Z,98334.81
2022-08-30T00:42:26.678Z,98329.72
2022-08-30T00:44:53.008Z,98330.78
2022-08-30T00:47:19.257Z,98329.16
2022-08-30T00:49:45.773Z,98312.38
2022-08-30T00:52:12.133Z,98321.63
2022-08-30T00:54:38.470Z,98329.91
2022-08-30T00:57:05.961Z,98332.84
2022-08-30T00:59:33.296Z,98331.19
2022-08-30T01:01:59.869Z,98324.22
2022-08-30T01:04:26.217Z,98327.16
2022-08-30T01:06:54.760Z,98318.53
2022-08-30T01:09:21.029Z,98319.59
2022-08-30T01:11:47.322Z,98325.19
2022-08-30T01:14:13.720Z,98323.59
2022-08-30T01:16:40.217Z,98319.28
2022-08-30T01:19:06.658Z,98319.53
2022-08-30T01:21:35.716Z,98324.09
2022-08-30T01:24:02.689Z,98327.00
2022-08-30T01:26:28.930Z,98338.53
2022-08-30T01:28:55.216Z,98330.75
2022-08-30T01:31:23.216Z,98333.69
2022-08-30T01:33:49.595Z,98332.88
2022-08-30T01:36:16.169Z,98337.41
2022-08-30T01:38:43.561Z,98345.44
2022-08-30T01:41:10.518Z,98341.41
2022-08-30T01:43:38.187Z,98338.97
2022-08-30T01:46:04.574Z,98346.19
2022-08-30T01:48:31.377Z,98343.78
2022-08-30T01:50:58.828Z,98350.97
2022-08-30T01:53:25.437Z,98349.13
2022-08-30T01:55:51.855Z,98342.94
2022-08-30T01:58:18.732Z,98344.03
2022-08-30T02:00:44.993Z,98352.84
2022-08-30T02:03:12.555Z,98355.53
2022-08-30T02:05:41.100Z,98347.50
2022-08-30T02:08:07.530Z,98345.06
2022-08-30T02:10:36.282Z,98335.16
2022-08-30T02:13:02.964Z,98342.63
2022-08-30T02:15:29.290Z,98333.78
2022-08-30T02:17:57.580Z,98328.69
2022-08-30T02:20:27.576Z,98334.28
2022-08-30T02:22:53.850Z,98332.69
2022-08-30T02:25:21.321Z,98330.47
2022-08-30T02:27:47.596Z,98326.19
2022-08-30T02:30:13.847Z,98316.53
2022-08-30T02:32:41.594Z,98314.34
2022-08-30T02:35:07.844Z,98326.13
2022-08-30T02:37:35.494Z,98336.00
2022-08-30T02:40:02.391Z,98341.63
2022-08-30T02:42:30.472Z,98343.72
2022-08-30T02:44:56.794Z,98343.97
2022-08-30T02:47:24.066Z,98345.84
2022-08-30T02:49:50.340Z,98340.72
2022-08-30T02:52:16.635Z,98344.47
2022-08-30T02:54:44.280Z,98334.81
2022-08-30T02:57:18.150Z,98330.78
2022-08-30T02:59:47.368Z,98333.72
2022-08-30T03:02:15.972Z,98332.06
2022-08-30T03:04:43.317Z,98330.47
2022-08-30T03:07:12.597Z,98328.03
2022-08-30T03:09:38.992Z,98328.28
2022-08-30T03:12:05.439Z,98326.06
2022-08-30T03:14:31.666Z,98317.25
2022-08-30T03:16:59.490Z,98314.59
2022-08-30T03:19:26.327Z,98319.38
2022-08-30T03:21:52.988Z,98315.88
2022-08-30T03:24:19.289Z,98322.28
2022-08-30T03:26:46.563Z,98314.47
2022-08-30T03:29:13.301Z,98315.81
2022-08-30T03:31:43.224Z,98319.50
2022-08-30T03:34:19.834Z,98318.72
2022-08-30T03:36:46.101Z,98324.06
2022-08-30T03:39:14.125Z,98323.50
2022-08-30T03:41:40.817Z,98321.09
2022-08-30T03:44:09.571Z,98323.75
2022-08-30T03:46:37.591Z,98323.19
2022-08-30T03:49:05.647Z,98329.59
2022-08-30T03:51:32.007Z,98325.28
2022-08-30T03:54:00.015Z,98330.91
2022-08-30T03:56:27.034Z,98329.47
2022-08-30T03:58:53.302Z,98327.88
2022-08-30T04:01:19.874Z,98332.66
2022-08-30T04:03:46.369Z,98331.03
2022-08-30T04:06:12.642Z,98332.06
2022-08-30T04:08:38.868Z,98327.78
2022-08-30T04:11:05.782Z,98330.72
2022-08-30T04:13:32.001Z,98328.28
2022-08-30T04:15:58.724Z,98326.66
2022-08-30T04:18:25.031Z,98330.38
2022-08-30T04:20:52.569Z,98328.75
2022-08-30T04:23:18.830Z,98329.00
2022-08-30T04:25:45.595Z,98322.84
2022-08-30T04:28:11.820Z,98326.56
2022-08-30T04:30:38.381Z,98320.66
2022-08-30T04:33:04.937Z,98326.00
2022-08-30T04:35:31.550Z,98333.00
2022-08-30T04:37:57.826Z,98335.75
2022-08-30T04:40:24.442Z,98340.91
2022-08-30T04:42:52.078Z,98341.03
2022-08-30T04:45:21.645Z,98343.53
2022-08-30T04:47:48.655Z,98350.59
2022-08-30T04:50:15.241Z,98360.09
2022-08-30T04:52:44.100Z,98359.59
2022-08-30T04:55:10.352Z,98364.63
2022-08-30T04:57:36.714Z,98363.47
2022-08-30T05:00:02.947Z,98367.16
2022-08-30T05:02:29.273Z,98362.50
2022-08-30T05:04:55.509Z,98377.22
2022-08-30T05:07:22.349Z,98375.81
2022-08-30T05:09:48.649Z,98374.41
2022-08-30T05:12:14.955Z,98381.63
2022-08-30T05:17:31.406Z,98371.41
2022-08-30T05:19:57.695Z,98371.41
2022-08-30T05:22:23.948Z,98377.00
2022-08-30T05:24:50.237Z,98379.66
2022-08-30T05:27:16.663Z,98381.31
2022-08-30T05:29:43.126Z,98385.59
2022-08-30T05:32:09.905Z,98387.81
2022-08-30T05:34:36.204Z,98381.38
2022-08-30T05:37:03.684Z,98386.28
2022-08-30T05:39:29.909Z,98395.13
2022-08-30T05:42:16.941Z,98391.47
2022-08-30T05:44:44.370Z,98385.03
2022-08-30T05:47:10.744Z,98384.78
2022-08-30T05:49:37.355Z,98383.06
2022-08-30T05:52:03.862Z,98392.69
2022-08-30T05:54:33.690Z,98392.13
2022-08-30T05:57:00.097Z,98394.66
2022-08-30T05:59:26.507Z,98389.41
2022-08-30T06:01:52.769Z,98401.06
2022-08-30T06:04:19.038Z,98398.75
2022-08-30T06:06:45.559Z,98392.69
2022-08-30T06:09:13.438Z,98391.19
2022-08-30T06:11:39.808Z,98400.06
2022-08-30T06:14:06.745Z,98400.53
2022-08-30T06:16:34.491Z,98401.94
2022-08-30T06:19:01.754Z,98397.47
2022-08-30T06:21:30.502Z,98391.72
2022-08-30T06:23:56.815Z,98393.28
2022-08-30T06:26:23.397Z,98399.28
2022-08-30T06:28:49.811Z,98396.19
2022-08-30T06:31:16.671Z,98401.72
2022-08-30T06:33:42.996Z,98410.53
2022-08-30T06:36:09.263Z,98413.66
2022-08-30T06:38:36.628Z,98409.38
2022-08-30T06:41:03.613Z,98405.44
2022-08-30T06:43:30.738Z,98404.00
2022-08-30T06:45:58.529Z,98404.78
2022-08-30T06:48:24.896Z,98405.81
2022-08-30T06:50:51.339Z,98402.59
2022-08-30T06:53:22.257Z,98402.59
2022-08-30T06:55:52.376Z,98409.06
2022-08-30T06:58:22.862Z,98415.03
2022-08-30T07:00:51.957Z,98417.56
2022-08-30T07:03:19.167Z,98416.25
2022-08-30T07:05:46.780Z,98414.91
2022-08-30T07:08:14.947Z,98417.06
2022-08-30T07:10:42.131Z,98424.34
2022-08-30T07:13:08.553Z,98424.63
2022-08-30T07:15:38.312Z,98430.28
2022-08-30T07:18:05.987Z,98444.53
2022-08-30T07:20:40.110Z,98426.78
2022-08-30T07:23:07.064Z,98431.69
2022-08-30T07:25:35.856Z,98431.69
2022-08-30T07:28:03.437Z,98437.13
2022-08-30T07:30:29.792Z,98436.19
2022-08-30T07:32:59.225Z,98448.09
2022-08-30T07:35:34.574Z,98442.53
2022-08-30T07:38:02.847Z,98447.13
2022-08-30T07:40:29.485Z,98439.66
2022-08-30T07:42:57.099Z,98446.94
2022-08-30T07:45:26.142Z,98452.44
2022-08-30T07:47:54.563Z,98454.63
2022-08-30T07:50:20.998Z,98448.69
2022-08-30T07:52:47.399Z,98452.47
2022-08-30T07:55:17.429Z,98448.72
2022-08-30T07:57:52.353Z,98455.97
2022-08-30T08:00:20.077Z,98454.88
2022-08-30T08:03:00.576Z,98448.34
2022-08-30T08:08:13.369Z,98444.66
2022-08-30T08:10:40.384Z,98453.47
2022-08-30T08:13:07.925Z,98474.41
2022-08-30T08:18:26.277Z,98505.06
2022-08-30T08:20:53.910Z,98520.75
2022-08-30T08:23:23.035Z,98514.06
2022-08-30T08:25:49.573Z,98518.56
2022-08-30T08:28:16.100Z,98536.41
2022-08-30T08:30:48.004Z,98529.81
2022-08-30T08:33:14.609Z,98545.25
2022-08-30T08:35:43.537Z,98548.31
2022-08-30T08:38:10.403Z,98540.06
2022-08-30T08:40:38.649Z,98531.88
2022-08-30T08:43:13.014Z,98542.47
2022-08-30T08:45:40.604Z,98538.31
2022-08-30T08:48:07.905Z,98545.94
2022-08-30T08:50:34.564Z,98529.16
2022-08-30T08:53:01.145Z,98530.78
2022-08-30T08:55:27.493Z,98532.28
2022-08-30T08:57:54.077Z,98501.81
2022-08-30T09:00:22.312Z,98488.16
2022-08-30T09:02:50.656Z,98465.78
2022-08-30T09:05:20.294Z,98435.59
2022-08-30T09:07:47.639Z,98419.81
2022-08-30T09:10:14.023Z,98410.22
2022-08-30T09:12:41.026Z,98402.56
2022-08-30T09:15:11.944Z,98402.19
2022-08-30T09:17:40.844Z,98407.50
2022-08-30T09:20:07.745Z,98400.84
2022-08-30T09:22:34.141Z,98403.66
2022-08-30T09:25:04.787Z,98402.31
2022-08-30T09:27:33.109Z,98409.09
2022-08-30T09:29:59.617Z,98403.69
2022-08-30T09:32:25.928Z,98404.50
2022-08-30T09:34:58.379Z,98405.06
2022-08-30T09:37:24.833Z,98407.25
2022-08-30T09:39:52.345Z,98402.94
2022-08-30T09:42:19.157Z,98393.72
2022-08-30T09:44:45.498Z,98395.06
2022-08-30T09:47:12.286Z,98395.31
2022-08-30T09:49:39.783Z,98399.41
2022-08-30T09:52:06.624Z,98397.81
2022-08-30T09:54:34.776Z,98390.53
2022-08-30T09:57:01.380Z,98395.13
2022-08-30T09:59:27.586Z,98394.34
2022-08-30T10:01:58.847Z,98391.34
2022-08-30T10:07:16.386Z,98385.13
2022-08-30T10:09:42.880Z,98380.25
2022-08-30T10:12:10.625Z,98379.97
2022-08-30T10:14:37.728Z,98382.38
2022-08-30T10:17:05.331Z,98377.00
2022-08-30T10:19:33.543Z,98378.63
2022-08-30T10:21:59.868Z,98382.63
2022-08-30T10:24:33.356Z,98376.69
2022-08-30T10:27:00.087Z,98372.41
2022-08-30T10:29:26.788Z,98373.22
2022-08-30T10:31:53.076Z,98370.50
2022-08-30T10:34:19.790Z,98369.94
2022-08-30T10:36:50.723Z,98371.25
2022-08-30T10:39:17.913Z,98371.00
2022-08-30T10:41:44.840Z,98372.28
2022-08-30T10:44:11.032Z,98381.75
2022-08-30T10:46:37.505Z,98373.34
2022-08-30T10:49:11.400Z,98378.47
2022-08-30T10:51:37.788Z,98373.88
2022-08-30T10:54:03.964Z,98371.97
2022-08-30T10:56:32.378Z,98366.00
2022-08-30T10:59:02.262Z,98369.50
2022-08-30T11:01:29.707Z,98369.22
2022-08-30T11:03:57.580Z,98367.03
2022-08-30T11:06:25.436Z,98368.13
2022-08-30T11:08:55.673Z,98354.91
2022-08-30T11:11:22.004Z,98353.00
2022-08-30T11:13:55.816Z,98353.50
2022-08-30T11:16:42.037Z,98355.66
2022-08-30T11:19:32.371Z,98356.19
2022-08-30T11:21:58.853Z,98353.97
2022-08-30T11:24:25.339Z,98350.97
2022-08-30T11:26:53.321Z,98352.63
2022-08-30T11:29:21.548Z,98347.75
2022-08-30T11:31:51.900Z,98351.25
2022-08-30T11:34:19.372Z,98345.56
2022-08-30T11:36:46.644Z,98351.78
2022-08-30T11:39:13.278Z,98351.47
2022-08-30T11:41:42.618Z,98345.00
2022-08-30T11:44:10.517Z,98342.28
2022-08-30T11:46:36.753Z,98341.19
2022-08-30T11:49:03.118Z,98339.81
2022-08-30T11:51:30.544Z,98337.13
2022-08-30T11:53:56.915Z,98329.22
2022-08-30T11:56:23.570Z,98338.16
2022-08-30T11:58:50.995Z,98330.84
2022-08-30T12:01:40.844Z,98326.75
2022-08-30T12:04:05.921Z,98328.66
2022-08-30T12:06:39.872Z,98321.34
2022-08-30T12:09:10.215Z,98325.66
2022-08-30T12:11:38.040Z,98321.06
2022-08-30T12:14:09.388Z,98316.47
2022-08-30T12:16:36.336Z,98320.78
2022-08-30T12:19:03.880Z,98315.06
2022-08-30T12:21:33.364Z,98315.06
2022-08-30T12:24:10.593Z,98305.06
2022-08-30T12:26:38.948Z,98309.38
2022-08-30T12:29:07.979Z,98308.28
2022-08-30T12:31:34.285Z,98302.88
2022-08-30T12:34:01.107Z,98305.59
2022-08-30T12:36:27.434Z,98297.47
2022-08-30T12:38:55.588Z,98299.66
2022-08-30T12:41:22.471Z,98297.75
2022-08-30T12:43:48.929Z,98295.84
2022-08-30T12:46:16.277Z,98295.06
2022-08-30T12:48:42.778Z,98293.44
2022-08-30T12:51:09.082Z,98291.53
2022-08-30T12:53:35.452Z,98296.94
2022-08-30T12:56:02.031Z,98289.66
2022-08-30T12:58:28.406Z,98282.91
2022-08-30T13:00:54.893Z,98279.69
2022-08-30T13:03:24.225Z,98281.84
2022-08-30T13:05:52.784Z,98277.56
2022-08-30T13:08:19.721Z,98278.38
2022-08-30T13:10:48.556Z,98280.25
2022-08-30T13:13:18.065Z,98273.25
2022-08-30T13:15:47.536Z,98278.94
2022-08-30T13:18:14.013Z,98278.94
2022-08-30T13:20:44.394Z,98278.16
2022-08-30T13:23:13.077Z,98267.94
2022-08-30T13:25:39.395Z,98266.34
2022-08-30T13:28:05.658Z,98265.53
2022-08-30T13:30:33.437Z,98252.13
2022-08-30T13:32:59.861Z,98265.81
2022-08-30T13:35:32.840Z,98264.22
2022-08-30T13:38:01.695Z,98264.22
2022-08-30T13:40:28.010Z,98260.97
2022-08-30T13:42:54.364Z,98263.69
2022-08-30T13:48:07.039Z,98270.16
2022-08-30T13:50:33.329Z,98265.56
2022-08-30T13:53:00.278Z,98256.94
2022-08-30T13:55:26.773Z,98252.63
2022-08-30T13:57:54.810Z,98251.81
2022-08-30T14:00:21.595Z,98249.41
2022-08-30T14:02:54.654Z,98254.81
2022-08-30T14:10:55.572Z,98256.19
2022-08-30T14:13:22.117Z,98258.91
2022-08-30T14:15:48.594Z,98253.50
2022-08-30T14:18:17.882Z,98251.06
2022-08-30T14:20:45.926Z,98254.88
2022-08-30T14:23:12.237Z,98251.66
2022-08-30T14:25:40.778Z,98250.84
2022-08-30T14:28:08.237Z,98249.25
2022-08-30T14:30:36.089Z,98257.34
2022-08-30T14:33:02.837Z,98260.88
2022-08-30T14:35:30.742Z,98251.13
2022-08-30T14:37:57.330Z,98248.72
2022-08-30T14:40:24.972Z,98249.31
2022-08-30T14:42:55.700Z,98247.69
2022-08-30T14:45:24.185Z,98250.69
2022-08-30T14:47:50.533Z,98248.25
2022-08-30T14:50:18.175Z,98243.97
2022-08-30T14:52:45.388Z,98235.84
2022-08-30T14:55:11.861Z,98243.97
2022-08-30T14:57:38.490Z,98240.75
2022-08-30T15:00:04.876Z,98241.81
2022-08-30T15:02:32.569Z,98240.22
2022-08-30T15:04:59.078Z,98241.28
2022-08-30T15:07:25.392Z,98242.41
2022-08-30T15:09:52.151Z,98243.50
2022-08-30T15:12:18.506Z,98245.69
2022-08-30T15:14:47.290Z,98237.06
2022-08-30T15:17:14.012Z,98238.16
2022-08-30T15:19:41.559Z,98236.81
2022-08-30T15:22:11.016Z,98228.19
2022-08-30T15:24:37.478Z,98226.59
2022-08-30T15:27:11.168Z,98225.78
2022-08-30T15:29:38.854Z,98218.78
2022-08-30T15:37:40.937Z,98217.22
2022-08-30T15:40:10.628Z,98206.69
2022-08-30T15:42:37.334Z,98205.06
2022-08-30T15:45:04.227Z,98203.75
2022-08-30T15:47:34.705Z,98204.06
2022-08-30T15:50:01.429Z,98208.13
2022-08-30T15:52:27.741Z,98209.22
2022-08-30T15:54:54.545Z,98209.50
2022-08-30T15:57:21.060Z,98198.97
2022-08-30T15:59:48.125Z,98207.31
2022-08-30T16:02:14.685Z,98200.63
2022-08-30T16:04:43.139Z,98200.09
2022-08-30T16:07:12.109Z,98196.06
2022-08-30T16:09:40.784Z,98196.34
2022-08-30T16:12:09.910Z,98196.63
2022-08-30T16:14:40.738Z,98183.41
2022-08-30T16:17:08.353Z,98187.22
2022-08-30T16:19:34.795Z,98184.00
2022-08-30T16:22:01.940Z,98175.38
2022-08-30T16:24:28.283Z,98179.16
2022-08-30T16:26:54.611Z,98172.16
2022-08-30T16:29:20.883Z,98173.75
2022-08-30T16:31:51.160Z,98174.56
2022-08-30T16:34:17.703Z,98173.75
2022-08-30T16:36:44.042Z,98167.56
2022-08-30T16:39:12.244Z,98170.25
2022-08-30T16:41:38.523Z,98162.44
2022-08-30T16:44:05.309Z,98175.13
2022-08-30T16:46:33.444Z,98174.31
2022-08-30T16:48:59.877Z,98176.22
2022-08-30T16:51:26.601Z,98180.81
2022-08-30T16:53:52.942Z,98175.72
2022-08-30T16:56:19.234Z,98177.59
2022-08-30T16:58:45.576Z,98179.50
2022-08-30T17:01:11.900Z,98179.78
2022-08-30T17:03:38.712Z,98178.19
2022-08-30T17:06:05.899Z,98179.25
2022-08-30T17:08:33.020Z,98183.06
2022-08-30T17:10:59.352Z,98177.94
2022-08-30T17:13:25.659Z,98175.53
2022-08-30T17:15:52.093Z,98173.91
2022-08-30T17:18:18.636Z,98183.41
2022-08-30T17:20:45.526Z,98183.66
2022-08-30T17:23:11.789Z,98188.56
2022-08-30T17:25:40.351Z,98194.22
2022-08-30T17:28:07.413Z,98199.91
2022-08-30T17:30:37.923Z,98198.59
2022-08-30T17:33:04.355Z,98203.16
2022-08-30T17:35:30.840Z,98201.03
2022-08-30T17:37:57.242Z,98210.22
2022-08-30T17:40:23.655Z,98212.38
2022-08-30T17:42:50.027Z,98211.88
2022-08-30T17:45:16.331Z,98208.94
2022-08-30T17:47:42.822Z,98205.72
2022-08-30T17:50:09.254Z,98207.88
2022-08-30T17:52:35.529Z,98211.94
2022-08-30T17:55:01.858Z,98209.78
2022-08-30T17:57:30.015Z,98211.94
2022-08-30T17:59:56.664Z,98212.50
2022-08-30T18:02:22.943Z,98213.88
2022-08-30T18:04:56.714Z,98220.66
2022-08-30T18:07:23.152Z,98228.22
2022-08-30T18:09:50.129Z,98224.97
2022-08-30T18:12:16.935Z,98228.25
2022-08-30T18:14:45.405Z,98231.22
2022-08-30T18:17:11.747Z,98233.69
2022-08-30T18:19:45.861Z,98234.25
2022-08-30T18:22:12.942Z,98241.00
2022-08-30T18:24:41.741Z,98235.34
2022-08-30T18:27:08.545Z,98239.38
2022-08-30T18:29:34.879Z,98245.34
2022-08-30T18:32:03.197Z,98253.72
2022-08-30T18:34:29.753Z,98248.06
2022-08-30T18:36:56.153Z,98246.72
2022-08-30T18:39:22.680Z,98250.50
2022-08-30T18:41:54.600Z,98248.38
2022-08-30T18:44:29.599Z,98256.75
2022-08-30T18:47:00.462Z,98249.19
2022-08-30T18:49:26.972Z,98247.06
2022-08-30T18:51:53.696Z,98255.44
2022-08-30T18:54:20.025Z,98254.91
2022-08-30T18:56:46.293Z,98253.56
2022-08-30T18:59:12.697Z,98246.84
2022-08-30T19:01:39.421Z,98248.44
2022-08-30T19:04:07.654Z,98250.59
2022-08-30T19:06:34.108Z,98249.25
2022-08-30T19:09:00.821Z,98256.28
2022-08-30T19:11:27.617Z,98258.72
2022-08-30T19:13:53.906Z,98248.78
2022-08-30T19:16:20.617Z,98251.22
2022-08-30T19:18:47.082Z,98250.94
2022-08-30T19:21:13.711Z,98248.28
2022-08-30T19:23:40.967Z,98256.88
2022-08-30T19:26:10.805Z,98255.84
2022-08-30T19:28:37.424Z,98250.19
2022-08-30T19:31:03.880Z,98244.53
2022-08-30T19:33:32.852Z,98247.78
2022-08-30T19:35:59.689Z,98255.59
2022-08-30T19:38:26.248Z,98258.03
2022-08-30T19:40:54.820Z,98262.06
2022-08-30T19:43:21.269Z,98252.91
2022-08-30T19:45:47.638Z,98253.47
2022-08-30T19:48:14.753Z,98261.28
2022-08-30T19:50:41.629Z,98263.66
2022-08-30T19:53:07.928Z,98263.94
2022-08-30T19:55:34.248Z,98259.34
2022-08-30T19:58:00.776Z,98266.09
2022-08-30T20:00:27.285Z,98260.44
2022-08-30T20:02:57.228Z,98259.09
2022-08-30T20:05:26.544Z,98252.94
2022-08-30T20:07:53.655Z,98259.66
2022-08-30T20:10:25.892Z,98255.59
2022-08-30T20:12:54.509Z,98249.94
2022-08-30T20:15:25.626Z,98257.50
2022-08-30T20:18:05.913Z,98258.03
2022-08-30T20:20:39.127Z,98259.38
2022-08-30T20:23:05.454Z,98243.78
2022-08-30T20:25:33.541Z,98255.06
2022-08-30T20:27:59.892Z,98254.50
2022-08-30T20:30:26.180Z,98253.19
2022-08-30T20:32:53.676Z,98260.72
2022-08-30T20:35:19.973Z,98256.66
2022-08-30T20:37:46.521Z,98256.16
2022-08-30T20:40:15.558Z,98260.16
2022-08-30T20:42:42.852Z,98263.66
2022-08-30T20:45:09.176Z,98259.63
2022-08-30T20:47:35.530Z,98252.88
2022-08-30T20:50:02.092Z,98249.69
2022-08-30T20:52:28.398Z,98247.47
2022-08-30T20:54:54.832Z,98236.19
2022-08-30T20:57:24.440Z,98249.38
2022-08-30T20:59:53.023Z,98263.03
2022-08-30T21:02:19.379Z,98261.72
2022-08-30T21:04:46.668Z,98259.56
2022-08-30T21:07:13.399Z,98258.19
2022-08-30T21:09:39.915Z,98267.59
2022-08-30T21:12:06.716Z,98268.69
2022-08-30T21:14:32.986Z,98262.19
2022-08-30T21:16:59.573Z,98267.03
2022-08-30T21:19:26.295Z,98273.75
2022-08-30T21:21:52.590Z,98269.72
2022-08-30T21:24:19.807Z,98260.31
2022-08-30T21:26:46.138Z,98271.34
2022-08-30T21:29:13.502Z,98276.16
2022-08-30T21:31:39.773Z,98270.22
2022-08-30T21:34:06.584Z,98276.69
2022-08-30T21:36:33.887Z,98278.81
2022-08-30T21:39:00.834Z,98284.97
2022-08-30T21:41:29.423Z,98292.19
2022-08-30T21:43:55.710Z,98290.31
2022-08-30T21:46:22.042Z,98291.13
2022-08-30T21:48:48.436Z,98293.50
2022-08-30T21:51:15.219Z,98303.16
2022-08-30T21:53:41.514Z,98305.56
2022-08-30T21:56:07.988Z,98296.91
2022-08-30T21:58:39.708Z,98305.75
2022-08-30T22:01:06.672Z,98302.53
2022-08-30T22:03:33.208Z,98306.78
2022-08-30T22:05:59.778Z,98315.38
2022-08-30T22:08:26.582Z,98315.91
2022-08-30T22:10:53.002Z,98321.75
2022-08-30T22:13:19.947Z,98314.25
2022-08-30T22:15:46.313Z,98314.75
2022-08-30T22:18:12.718Z,98324.94
2022-08-30T22:20:41.837Z,98333.53
2022-08-30T22:23:09.605Z,98324.91
2022-08-30T22:25:38.051Z,98323.53
2022-08-30T22:28:04.456Z,98322.97
2022-08-30T22:30:31.848Z,98333.44
2022-08-30T22:32:58.123Z,98326.97
2022-08-30T22:35:25.156Z,98334.47
2022-08-30T22:37:53.604Z,98325.03
2022-08-30T22:40:20.352Z,98321.03
2022-08-30T22:42:48.225Z,98324.22
2022-08-30T22:45:17.980Z,98335.19
2022-08-30T22:47:44.429Z,98331.16
2022-08-30T22:50:10.702Z,98334.38
2022-08-30T22:52:37.727Z,98342.91
2022-08-30T22:55:05.077Z,98343.41
2022-08-30T22:57:31.364Z,98350.91
2022-08-30T22:59:57.791Z,98354.94
2022-08-30T23:02:24.738Z,98351.91
2022-08-30T23:04:51.342Z,98347.03
2022-08-30T23:07:17.611Z,98349.97
2022-08-30T23:09:44.056Z,98351.31
2022-08-30T23:12:10.341Z,98352.63
2022-08-30T23:14:36.807Z,98355.00
2022-08-30T23:17:03.427Z,98350.13
2022-08-30T23:19:30.030Z,98361.38
2022-08-30T23:21:56.328Z,98359.19
2022-08-30T23:24:24.552Z,98359.69
2022-08-30T23:26:50.840Z,98364.50
2022-08-30T23:29:17.243Z,98360.47
2022-08-30T23:31:43.685Z,98360.72
2022-08-30T23:34:10.513Z,98359.34
2022-08-30T23:36:36.844Z,98359.59
2022-08-30T23:39:03.669Z,98366.25
2022-08-30T23:41:33.884Z,98353.94
2022-08-30T23:44:00.744Z,98352.25
2022-08-30T23:46:27.113Z,98363.53
2022-08-30T23:48:53.725Z,98361.94
2022-08-30T23:51:21.937Z,98366.72
2022-08-30T23:53:48.449Z,98362.66
2022-08-30T23:56:14.770Z,98364.78
2022-08-30T23:58:41.133Z,98350.84
